sensor_id;sensor_type;location;lat;lon;timestamp;pressure;altitude;pressure_sealevel;temperature;humidity
26775;BME280;14362;51.902;7.626;2023-06-26T00:03:39;100650.47;;;22.55;100.00
26775;BME280;14362;51.902;7.626;2023-06-26T00:07:41;100654.13;;;22.52;100.00
26775;BME280;14362;51.902;7.626;2023-06-26T00:11:42;100662.25;;;22.50;100.00
26775;BME280;14362;51.902;7.626;2023-06-26T00:15:45;100656.56;;;22.50;100.00
26775;BME280;14362;51.902;7.626;2023-06-26T00:19:46;100654.53;;;22.47;100.00
26775;BME280;14362;51.902;7.626;2023-06-26T00:23:48;100643.59;;;22.42;100.00
26775;BME280;14362;51.902;7.626;2023-06-26T00:27:49;100640.31;;;22.37;100.00
26775;BME280;14362;51.902;7.626;2023-06-26T00:31:52;100633.81;;;22.33;100.00
26775;BME280;14362;51.902;7.626;2023-06-26T00:35:53;100631.78;;;22.26;100.00
26775;BME280;14362;51.902;7.626;2023-06-26T00:39:54;100629.75;;;22.23;100.00
26775;BME280;14362;51.902;7.626;2023-06-26T00:43:56;100629.31;;;22.18;100.00
26775;BME280;14362;51.902;7.626;2023-06-26T00:47:59;100644.75;;;22.13;100.00
26775;BME280;14362;51.902;7.626;2023-06-26T00:52:00;100638.25;;;22.09;100.00
26775;BME280;14362;51.902;7.626;2023-06-26T00:56:05;100625.69;;;22.07;100.00
26775;BME280;14362;51.902;7.626;2023-06-26T01:00:08;100626.06;;;22.02;100.00
26775;BME280;14362;51.902;7.626;2023-06-26T01:04:11;100624.44;;;21.97;100.00
26775;BME280;14362;51.902;7.626;2023-06-26T01:08:18;100615.09;;;21.93;100.00
26775;BME280;14362;51.902;7.626;2023-06-26T01:12:20;100608.22;;;21.91;100.00
26775;BME280;14362;51.902;7.626;2023-06-26T01:16:23;100612.66;;;21.85;100.00
26775;BME280;14362;51.902;7.626;2023-06-26T01:20:26;100603.34;;;21.77;100.00
26775;BME280;14362;51.902;7.626;2023-06-26T01:24:33;100602.13;;;21.75;100.00
26775;BME280;14362;51.902;7.626;2023-06-26T01:28:40;100598.88;;;21.70;100.00
26775;BME280;14362;51.902;7.626;2023-06-26T01:32:43;100595.19;;;21.62;100.00
26775;BME280;14362;51.902;7.626;2023-06-26T01:36:45;100584.25;;;21.61;100.00
26775;BME280;14362;51.902;7.626;2023-06-26T01:40:47;100583.81;;;21.55;100.00
26775;BME280;14362;51.902;7.626;2023-06-26T01:44:49;100584.22;;;21.57;100.00
26775;BME280;14362;51.902;7.626;2023-06-26T01:48:59;100575.25;;;21.52;100.00
26775;BME280;14362;51.902;7.626;2023-06-26T01:53:07;100572.44;;;21.48;100.00
26775;BME280;14362;51.902;7.626;2023-06-26T01:57:11;100568.75;;;21.44;100.00
26775;BME280;14362;51.902;7.626;2023-06-26T02:01:15;100576.06;;;21.42;100.00
26775;BME280;14362;51.902;7.626;2023-06-26T02:05:16;100566.31;;;21.36;100.00
26775;BME280;14362;51.902;7.626;2023-06-26T02:09:18;100563.88;;;21.34;100.00
26775;BME280;14362;51.902;7.626;2023-06-26T02:13:19;100555.75;;;21.33;100.00
26775;BME280;14362;51.902;7.626;2023-06-26T02:17:22;100564.69;;;21.31;100.00
26775;BME280;14362;51.902;7.626;2023-06-26T02:21:24;100561.06;;;21.38;100.00
26775;BME280;14362;51.902;7.626;2023-06-26T02:25:25;100566.69;;;21.27;100.00
26775;BME280;14362;51.902;7.626;2023-06-26T02:29:27;100563.44;;;21.22;100.00
26775;BME280;14362;51.902;7.626;2023-06-26T02:33:30;100569.53;;;21.20;100.00
26775;BME280;14362;51.902;7.626;2023-06-26T02:37:32;100562.19;;;21.12;100.00
26775;BME280;14362;51.902;7.626;2023-06-26T02:41:33;100562.97;;;21.02;100.00
26775;BME280;14362;51.902;7.626;2023-06-26T02:45:35;100563.34;;;21.01;100.00
26775;BME280;14362;51.902;7.626;2023-06-26T02:49:37;100562.50;;;20.97;100.00
26775;BME280;14362;51.902;7.626;2023-06-26T02:53:39;100570.59;;;20.91;100.00
26775;BME280;14362;51.902;7.626;2023-06-26T02:57:40;100570.97;;;20.86;100.00
26775;BME280;14362;51.902;7.626;2023-06-26T03:01:42;100573.69;;;20.72;100.00
26775;BME280;14362;51.902;7.626;2023-06-26T03:05:44;100562.34;;;20.69;100.00
26775;BME280;14362;51.902;7.626;2023-06-26T03:09:46;100569.97;;;20.58;100.00
26775;BME280;14362;51.902;7.626;2023-06-26T03:13:47;100569.97;;;20.58;100.00
26775;BME280;14362;51.902;7.626;2023-06-26T03:17:48;100576.09;;;20.63;100.00
26775;BME280;14362;51.902;7.626;2023-06-26T03:21:51;100564.69;;;20.53;100.00
26775;BME280;14362;51.902;7.626;2023-06-26T03:25:53;100563.06;;;20.52;100.00
26775;BME280;14362;51.902;7.626;2023-06-26T03:29:54;100578.34;;;20.37;100.00
26775;BME280;14362;51.902;7.626;2023-06-26T03:33:56;100585.22;;;20.40;100.00
26775;BME280;14362;51.902;7.626;2023-06-26T03:37:59;100588.47;;;20.38;100.00
26775;BME280;14362;51.902;7.626;2023-06-26T03:42:00;100577.09;;;20.35;100.00
26775;BME280;14362;51.902;7.626;2023-06-26T03:46:02;100572.69;;;20.37;100.00
26775;BME280;14362;51.902;7.626;2023-06-26T03:50:04;100576.72;;;20.36;100.00
26775;BME280;14362;51.902;7.626;2023-06-26T03:54:07;100580.75;;;20.35;100.00
26775;BME280;14362;51.902;7.626;2023-06-26T03:58:08;100575.91;;;20.39;100.00
26775;BME280;14362;51.902;7.626;2023-06-26T04:02:09;100573.88;;;20.36;100.00
26775;BME280;14362;51.902;7.626;2023-06-26T04:06:12;100588.06;;;20.40;100.00
26775;BME280;14362;51.902;7.626;2023-06-26T04:10:15;100580.00;;;20.45;100.00
26775;BME280;14362;51.902;7.626;2023-06-26T04:14:16;100576.81;;;20.54;100.00
26775;BME280;14362;51.902;7.626;2023-06-26T04:18:18;100576.03;;;20.53;100.00
26775;BME280;14362;51.902;7.626;2023-06-26T04:22:20;100577.66;;;20.58;100.00
26775;BME280;14362;51.902;7.626;2023-06-26T04:26:23;100589.78;;;20.58;100.00
26775;BME280;14362;51.902;7.626;2023-06-26T04:30:24;100587.44;;;20.67;100.00
26775;BME280;14362;51.902;7.626;2023-06-26T04:34:26;100597.28;;;20.83;100.00
26775;BME280;14362;51.902;7.626;2023-06-26T04:38:27;100603.41;;;20.96;100.00
26775;BME280;14362;51.902;7.626;2023-06-26T04:42:30;100601.88;;;21.09;100.00
26775;BME280;14362;51.902;7.626;2023-06-26T04:46:32;100610.00;;;21.24;100.00
26775;BME280;14362;51.902;7.626;2023-06-26T04:50:33;100611.31;;;21.37;100.00
26775;BME280;14362;51.902;7.626;2023-06-26T04:54:35;100609.72;;;21.47;100.00
26775;BME280;14362;51.902;7.626;2023-06-26T04:58:38;100616.63;;;21.56;100.00
26775;BME280;14362;51.902;7.626;2023-06-26T05:02:39;100610.19;;;21.66;100.00
26775;BME280;14362;51.902;7.626;2023-06-26T05:06:41;100613.88;;;21.77;100.00
26775;BME280;14362;51.902;7.626;2023-06-26T05:10:43;100618.75;;;21.90;100.00
26775;BME280;14362;51.902;7.626;2023-06-26T05:14:46;100625.25;;;21.94;100.00
26775;BME280;14362;51.902;7.626;2023-06-26T05:18:47;100625.28;;;22.01;100.00
26775;BME280;14362;51.902;7.626;2023-06-26T05:22:49;100617.56;;;22.12;100.00
26775;BME280;14362;51.902;7.626;2023-06-26T05:26:51;100616.78;;;22.26;100.00
26775;BME280;14362;51.902;7.626;2023-06-26T05:30:55;100613.16;;;22.43;100.00
26775;BME280;14362;51.902;7.626;2023-06-26T05:34:57;100619.59;;;22.74;100.00
26775;BME280;14362;51.902;7.626;2023-06-26T05:38:59;100623.97;;;23.17;100.00
26775;BME280;14362;51.902;7.626;2023-06-26T05:43:01;100629.94;;;23.58;100.00
26775;BME280;14362;51.902;7.626;2023-06-26T05:47:06;100631.88;;;23.75;100.00
26775;BME280;14362;51.902;7.626;2023-06-26T05:51:08;100641.97;;;23.89;100.00
26775;BME280;14362;51.902;7.626;2023-06-26T05:55:11;100655.38;;;23.89;100.00
26775;BME280;14362;51.902;7.626;2023-06-26T05:59:14;100657.81;;;23.94;100.00
26775;BME280;14362;51.902;7.626;2023-06-26T06:03:18;100662.28;;;23.88;100.00
26775;BME280;14362;51.902;7.626;2023-06-26T06:07:19;100667.53;;;24.00;100.00
26775;BME280;14362;51.902;7.626;2023-06-26T06:11:22;100681.09;;;23.68;100.00
26775;BME280;14362;51.902;7.626;2023-06-26T06:15:23;100664.34;;;23.87;100.00
26775;BME280;14362;51.902;7.626;2023-06-26T06:19:26;100674.06;;;23.97;100.00
26775;BME280;14362;51.902;7.626;2023-06-26T06:23:27;100678.16;;;23.89;100.00
26775;BME280;14362;51.902;7.626;2023-06-26T06:27:29;100674.00;;;24.07;100.00
26775;BME280;14362;51.902;7.626;2023-06-26T06:31:31;100685.34;;;24.11;100.00
26775;BME280;14362;51.902;7.626;2023-06-26T06:35:33;100697.34;;;23.75;100.00
26775;BME280;14362;51.902;7.626;2023-06-26T06:39:35;100700.63;;;23.63;100.00
26775;BME280;14362;51.902;7.626;2023-06-26T06:43:36;100701.09;;;23.47;100.00
26775;BME280;14362;51.902;7.626;2023-06-26T06:47:38;100694.66;;;23.29;100.00
26775;BME280;14362;51.902;7.626;2023-06-26T06:51:40;100704.84;;;23.20;100.00
26775;BME280;14362;51.902;7.626;2023-06-26T06:55:42;100698.78;;;23.07;100.00
26775;BME280;14362;51.902;7.626;2023-06-26T06:59:43;100708.13;;;23.11;100.00
26775;BME280;14362;51.902;7.626;2023-06-26T07:03:45;100701.19;;;22.98;100.00
26775;BME280;14362;51.902;7.626;2023-06-26T07:07:47;100722.72;;;22.92;100.00
26775;BME280;14362;51.902;7.626;2023-06-26T07:11:49;100735.72;;;22.76;100.00
26775;BME280;14362;51.902;7.626;2023-06-26T07:15:50;100757.66;;;22.82;100.00
26775;BME280;14362;51.902;7.626;2023-06-26T07:19:52;100762.53;;;22.72;100.00
26775;BME280;14362;51.902;7.626;2023-06-26T07:23:55;100748.72;;;22.91;100.00
26775;BME280;14362;51.902;7.626;2023-06-26T07:27:56;100751.97;;;23.21;100.00
26775;BME280;14362;51.902;7.626;2023-06-26T07:31:57;100766.50;;;23.54;100.00
26775;BME280;14362;51.902;7.626;2023-06-26T07:35:59;100774.66;;;23.52;100.00
26775;BME280;14362;51.902;7.626;2023-06-26T07:40:02;100777.44;;;23.73;100.00
26775;BME280;14362;51.902;7.626;2023-06-26T07:44:04;100784.78;;;23.71;100.00
26775;BME280;14362;51.902;7.626;2023-06-26T07:48:05;100778.28;;;23.67;100.00
26775;BME280;14362;51.902;7.626;2023-06-26T07:52:07;100779.91;;;23.68;100.00
26775;BME280;14362;51.902;7.626;2023-06-26T07:56:12;100768.09;;;23.73;100.00
26775;BME280;14362;51.902;7.626;2023-06-26T08:00:14;100778.66;;;23.86;100.00
26775;BME280;14362;51.902;7.626;2023-06-26T08:04:16;100767.25;;;23.83;100.00
26775;BME280;14362;51.902;7.626;2023-06-26T08:08:18;100769.69;;;23.87;100.00
26775;BME280;14362;51.902;7.626;2023-06-26T08:12:21;100762.41;;;23.73;100.00
26775;BME280;14362;51.902;7.626;2023-06-26T08:16:22;100784.25;;;24.03;100.00
26775;BME280;14362;51.902;7.626;2023-06-26T08:20:23;100785.38;;;24.27;100.00
26775;BME280;14362;51.902;7.626;2023-06-26T08:24:25;100789.53;;;24.15;100.00
26775;BME280;14362;51.902;7.626;2023-06-26T08:28:28;100808.63;;;24.15;100.00
26775;BME280;14362;51.902;7.626;2023-06-26T08:32:29;100802.59;;;24.06;100.00
26775;BME280;14362;51.902;7.626;2023-06-26T08:36:30;100813.47;;;24.21;100.00
26775;BME280;14362;51.902;7.626;2023-06-26T08:40:32;100809.88;;;24.07;100.00
26775;BME280;14362;51.902;7.626;2023-06-26T08:44:35;100819.22;;;24.11;100.00
26775;BME280;14362;51.902;7.626;2023-06-26T08:48:37;100819.22;;;24.14;100.00
26775;BME280;14362;51.902;7.626;2023-06-26T08:52:43;100823.25;;;24.24;100.00
26775;BME280;14362;51.902;7.626;2023-06-26T08:56:48;100832.16;;;24.26;100.00
26775;BME280;14362;51.902;7.626;2023-06-26T09:00:54;100824.78;;;24.49;100.00
26775;BME280;14362;51.902;7.626;2023-06-26T09:04:56;100831.28;;;24.50;100.00
26775;BME280;14362;51.902;7.626;2023-06-26T09:08:58;100842.28;;;24.41;100.00
26775;BME280;14362;51.902;7.626;2023-06-26T09:12:59;100836.31;;;24.11;100.00
26775;BME280;14362;51.902;7.626;2023-06-26T09:17:03;100830.56;;;24.21;100.00
26775;BME280;14362;51.902;7.626;2023-06-26T09:21:06;100839.44;;;24.37;100.00
26775;BME280;14362;51.902;7.626;2023-06-26T09:25:09;100846.03;;;24.20;100.00
26775;BME280;14362;51.902;7.626;2023-06-26T09:29:11;100853.38;;;24.18;100.00
26775;BME280;14362;51.902;7.626;2023-06-26T09:33:15;100853.41;;;24.11;100.00
26775;BME280;14362;51.902;7.626;2023-06-26T09:37:17;100853.44;;;24.04;100.00
26775;BME280;14362;51.902;7.626;2023-06-26T09:41:18;100846.84;;;24.24;100.00
26775;BME280;14362;51.902;7.626;2023-06-26T09:45:20;100859.38;;;24.44;100.00
26775;BME280;14362;51.902;7.626;2023-06-26T09:49:23;100857.34;;;24.48;100.00
26775;BME280;14362;51.902;7.626;2023-06-26T09:53:26;100870.03;;;24.33;97.84
26775;BME280;14362;51.902;7.626;2023-06-26T09:57:27;100866.75;;;24.31;100.00
26775;BME280;14362;51.902;7.626;2023-06-26T10:01:30;100867.13;;;24.37;100.00
26775;BME280;14362;51.902;7.626;2023-06-26T10:05:33;100876.59;;;24.09;100.00
26775;BME280;14362;51.902;7.626;2023-06-26T10:09:38;100873.78;;;23.99;100.00
26775;BME280;14362;51.902;7.626;2023-06-26T10:13:42;100870.41;;;24.32;100.00
26775;BME280;14362;51.902;7.626;2023-06-26T10:17:46;100869.53;;;24.45;100.00
26775;BME280;14362;51.902;7.626;2023-06-26T10:21:51;100880.91;;;24.59;100.00
26775;BME280;14362;51.902;7.626;2023-06-26T10:25:53;100895.56;;;24.58;99.51
26775;BME280;14362;51.902;7.626;2023-06-26T10:29:58;100894.34;;;24.59;85.88
26775;BME280;14362;51.902;7.626;2023-06-26T10:34:01;100889.53;;;24.35;82.79
26775;BME280;14362;51.902;7.626;2023-06-26T10:38:04;100890.84;;;24.09;83.04
26775;BME280;14362;51.902;7.626;2023-06-26T10:42:10;100891.66;;;24.06;78.09
26775;BME280;14362;51.902;7.626;2023-06-26T10:46:14;100885.97;;;24.13;76.65
26775;BME280;14362;51.902;7.626;2023-06-26T10:50:18;100894.84;;;24.33;80.95
26775;BME280;14362;51.902;7.626;2023-06-26T10:54:21;100901.38;;;24.26;82.53
26775;BME280;14362;51.902;7.626;2023-06-26T10:58:30;100896.44;;;24.41;85.49
26775;BME280;14362;51.902;7.626;2023-06-26T11:02:47;100897.66;;;24.50;78.96
26775;BME280;14362;51.902;7.626;2023-06-26T11:07:15;100896.81;;;24.53;83.07
26775;BME280;14362;51.902;7.626;2023-06-26T11:11:18;100888.91;;;24.85;91.16
26775;BME280;14362;51.902;7.626;2023-06-26T11:15:19;100895.03;;;24.80;77.84
26775;BME280;14362;51.902;7.626;2023-06-26T11:19:21;100892.63;;;24.72;74.29
26775;BME280;14362;51.902;7.626;2023-06-26T11:23:26;100912.66;;;24.61;69.01
26775;BME280;14362;51.902;7.626;2023-06-26T11:27:32;100917.56;;;24.61;63.64
26775;BME280;14362;51.902;7.626;2023-06-26T11:31:34;100920.84;;;24.45;66.42
26775;BME280;14362;51.902;7.626;2023-06-26T11:35:37;100924.88;;;24.62;66.33
26775;BME280;14362;51.902;7.626;2023-06-26T11:39:39;100926.50;;;24.59;67.23
26775;BME280;14362;51.902;7.626;2023-06-26T11:43:41;100943.59;;;24.66;71.27
26775;BME280;14362;51.902;7.626;2023-06-26T11:47:43;100946.88;;;24.54;61.98
26775;BME280;14362;51.902;7.626;2023-06-26T11:51:46;100947.69;;;24.62;61.23
26775;BME280;14362;51.902;7.626;2023-06-26T11:55:47;100941.19;;;24.51;65.53
26775;BME280;14362;51.902;7.626;2023-06-26T11:59:50;100950.22;;;24.28;66.42
26775;BME280;14362;51.902;7.626;2023-06-26T12:04:00;100948.94;;;24.43;71.11
26775;BME280;14362;51.902;7.626;2023-06-26T12:08:03;100950.59;;;24.51;71.79
26775;BME280;14362;51.902;7.626;2023-06-26T12:12:08;100950.19;;;24.49;71.50
26775;BME280;14362;51.902;7.626;2023-06-26T12:16:11;100956.53;;;24.81;73.73
26775;BME280;14362;51.902;7.626;2023-06-26T12:20:18;100962.97;;;24.99;66.16
26775;BME280;14362;51.902;7.626;2023-06-26T12:24:23;100949.91;;;25.01;59.54
26775;BME280;14362;51.902;7.626;2023-06-26T12:28:26;100950.66;;;25.12;64.52
26775;BME280;14362;51.902;7.626;2023-06-26T12:32:28;100961.63;;;25.28;60.11
26775;BME280;14362;51.902;7.626;2023-06-26T12:36:39;100972.66;;;25.12;57.63
26775;BME280;14362;51.902;7.626;2023-06-26T12:40:44;100970.75;;;24.91;58.02
26775;BME280;14362;51.902;7.626;2023-06-26T12:44:47;100975.56;;;25.05;57.30
26775;BME280;14362;51.902;7.626;2023-06-26T12:48:54;100986.97;;;25.08;56.61
26775;BME280;14362;51.902;7.626;2023-06-26T12:52:55;100987.34;;;25.17;50.71
26775;BME280;14362;51.902;7.626;2023-06-26T12:56:57;100983.56;;;25.34;54.64
26775;BME280;14362;51.902;7.626;2023-06-26T13:00:58;100990.59;;;25.12;50.85
26775;BME280;14362;51.902;7.626;2023-06-26T13:05:01;100981.72;;;24.93;50.32
26775;BME280;14362;51.902;7.626;2023-06-26T13:09:03;100992.69;;;25.01;51.03
26775;BME280;14362;51.902;7.626;2023-06-26T13:13:05;100999.25;;;24.98;49.53
26775;BME280;14362;51.902;7.626;2023-06-26T13:17:06;100996.78;;;25.04;51.28
26775;BME280;14362;51.902;7.626;2023-06-26T13:21:09;100991.03;;;25.07;48.63
26775;BME280;14362;51.902;7.626;2023-06-26T13:25:10;100989.38;;;25.17;48.54
26775;BME280;14362;51.902;7.626;2023-06-26T13:29:12;100993.72;;;25.39;49.60
26775;BME280;14362;51.902;7.626;2023-06-26T13:33:13;101003.13;;;25.36;49.03
26775;BME280;14362;51.902;7.626;2023-06-26T13:37:17;101025.16;;;25.32;48.54
26775;BME280;14362;51.902;7.626;2023-06-26T13:41:18;101016.63;;;25.28;49.44
26775;BME280;14362;51.902;7.626;2023-06-26T13:45:21;101040.44;;;24.87;49.72
26775;BME280;14362;51.902;7.626;2023-06-26T13:49:23;101034.81;;;24.66;49.55
26775;BME280;14362;51.902;7.626;2023-06-26T13:53:25;101030.81;;;24.46;48.67
26775;BME280;14362;51.902;7.626;2023-06-26T13:57:27;101020.97;;;24.61;48.44
26775;BME280;14362;51.902;7.626;2023-06-26T14:01:28;101017.25;;;24.78;51.32
26775;BME280;14362;51.902;7.626;2023-06-26T14:05:30;101027.09;;;24.60;49.20
26775;BME280;14362;51.902;7.626;2023-06-26T14:09:33;101039.75;;;24.38;50.01
26775;BME280;14362;51.902;7.626;2023-06-26T14:13:34;101036.06;;;24.48;50.57
26775;BME280;14362;51.902;7.626;2023-06-26T14:17:36;101025.94;;;24.19;50.17
26775;BME280;14362;51.902;7.626;2023-06-26T14:21:40;101035.28;;;24.19;51.30
26775;BME280;14362;51.902;7.626;2023-06-26T14:25:42;101039.31;;;24.50;50.70
26775;BME280;14362;51.902;7.626;2023-06-26T14:29:44;101045.47;;;24.48;48.38
26775;BME280;14362;51.902;7.626;2023-06-26T14:33:45;101032.41;;;24.51;49.86
26775;BME280;14362;51.902;7.626;2023-06-26T14:37:47;101043.38;;;24.45;48.21
26775;BME280;14362;51.902;7.626;2023-06-26T14:41:50;101037.72;;;24.52;50.40
26775;BME280;14362;51.902;7.626;2023-06-26T14:45:51;101043.81;;;24.37;49.01
26775;BME280;14362;51.902;7.626;2023-06-26T14:49:53;101050.31;;;24.37;49.30
26775;BME280;14362;51.902;7.626;2023-06-26T14:53:54;101054.81;;;24.31;48.05
26775;BME280;14362;51.902;7.626;2023-06-26T14:57:57;101049.94;;;24.21;48.18
26775;BME280;14362;51.902;7.626;2023-06-26T15:01:59;101055.63;;;24.39;48.29
26775;BME280;14362;51.902;7.626;2023-06-26T15:06:00;101050.72;;;24.50;45.61
26775;BME280;14362;51.902;7.626;2023-06-26T15:10:02;101053.59;;;24.53;45.30
26775;BME280;14362;51.902;7.626;2023-06-26T15:14:06;101058.84;;;24.58;45.15
26775;BME280;14362;51.902;7.626;2023-06-26T15:18:07;101055.16;;;24.72;47.42
26775;BME280;14362;51.902;7.626;2023-06-26T15:22:09;101055.63;;;24.49;45.98
26775;BME280;14362;51.902;7.626;2023-06-26T15:26:10;101050.28;;;24.65;46.85
26775;BME280;14362;51.902;7.626;2023-06-26T15:30:14;101069.44;;;24.61;46.88
26775;BME280;14362;51.902;7.626;2023-06-26T15:34:15;101058.41;;;24.81;46.91
26775;BME280;14362;51.902;7.626;2023-06-26T15:38:16;101059.69;;;24.38;45.94
26775;BME280;14362;51.902;7.626;2023-06-26T15:42:18;101071.06;;;24.41;44.97
26775;BME280;14362;51.902;7.626;2023-06-26T15:46:20;101066.63;;;24.19;43.40
26775;BME280;14362;51.902;7.626;2023-06-26T15:50:22;101063.38;;;24.14;43.44
26775;BME280;14362;51.902;7.626;2023-06-26T15:54:25;101075.19;;;24.05;44.99
26775;BME280;14362;51.902;7.626;2023-06-26T15:58:27;101065.00;;;24.22;47.94
26775;BME280;14362;51.902;7.626;2023-06-26T16:02:30;101072.72;;;24.18;46.21
26775;BME280;14362;51.902;7.626;2023-06-26T16:06:31;101078.41;;;24.11;46.95
26775;BME280;14362;51.902;7.626;2023-06-26T16:10:32;101068.25;;;24.06;48.79
26775;BME280;14362;51.902;7.626;2023-06-26T16:14:34;101071.09;;;24.06;49.12
26775;BME280;14362;51.902;7.626;2023-06-26T16:18:37;101077.22;;;24.08;48.93
26775;BME280;14362;51.902;7.626;2023-06-26T16:22:38;101079.66;;;23.96;50.06
26775;BME280;14362;51.902;7.626;2023-06-26T16:26:40;101079.22;;;23.77;49.24
26775;BME280;14362;51.902;7.626;2023-06-26T16:30:41;101082.03;;;23.70;49.68
26775;BME280;14362;51.902;7.626;2023-06-26T16:34:44;101081.22;;;23.59;51.62
26775;BME280;14362;51.902;7.626;2023-06-26T16:38:45;101084.44;;;23.57;51.88
26775;BME280;14362;51.902;7.626;2023-06-26T16:42:48;101081.16;;;23.41;52.78
26775;BME280;14362;51.902;7.626;2023-06-26T16:46:55;101081.50;;;23.26;51.03
26775;BME280;14362;51.902;7.626;2023-06-26T16:50:58;101096.53;;;23.19;53.22
26775;BME280;14362;51.902;7.626;2023-06-26T16:55:00;101095.25;;;23.06;53.81
26775;BME280;14362;51.902;7.626;2023-06-26T16:59:01;101098.84;;;23.03;54.56
26775;BME280;14362;51.902;7.626;2023-06-26T17:03:03;101100.81;;;22.89;56.87
26775;BME280;14362;51.902;7.626;2023-06-26T17:07:06;101100.44;;;22.90;56.43
26775;BME280;14362;51.902;7.626;2023-06-26T17:11:07;101108.91;;;22.87;56.63
26775;BME280;14362;51.902;7.626;2023-06-26T17:15:09;101102.81;;;22.81;54.79
26775;BME280;14362;51.902;7.626;2023-06-26T17:19:11;101115.63;;;23.22;55.32
26775;BME280;14362;51.902;7.626;2023-06-26T17:23:14;101119.31;;;23.30;54.89
26775;BME280;14362;51.902;7.626;2023-06-26T17:27:15;101121.75;;;23.21;53.12
26775;BME280;14362;51.902;7.626;2023-06-26T17:31:20;101126.19;;;23.22;53.94
26775;BME280;14362;51.902;7.626;2023-06-26T17:35:22;101130.28;;;23.31;53.59
26775;BME280;14362;51.902;7.626;2023-06-26T17:39:25;101142.44;;;23.18;51.81
26775;BME280;14362;51.902;7.626;2023-06-26T17:43:27;101152.47;;;23.01;52.40
26775;BME280;14362;51.902;7.626;2023-06-26T17:47:28;101150.00;;;22.96;51.83
26775;BME280;14362;51.902;7.626;2023-06-26T17:51:30;101149.63;;;22.98;51.60
26775;BME280;14362;51.902;7.626;2023-06-26T17:55:33;101158.78;;;22.71;51.68
26775;BME280;14362;51.902;7.626;2023-06-26T17:59:37;101151.69;;;22.47;54.20
26775;BME280;14362;51.902;7.626;2023-06-26T18:03:38;101158.72;;;22.60;54.26
26775;BME280;14362;51.902;7.626;2023-06-26T18:07:39;101157.53;;;22.68;53.92
26775;BME280;14362;51.902;7.626;2023-06-26T18:11:42;101163.63;;;22.70;55.12
26775;BME280;14362;51.902;7.626;2023-06-26T18:15:44;101162.50;;;22.78;53.36
26775;BME280;14362;51.902;7.626;2023-06-26T18:19:45;101171.00;;;22.78;52.25
26775;BME280;14362;51.902;7.626;2023-06-26T18:23:47;101176.19;;;22.62;53.97
26775;BME280;14362;51.902;7.626;2023-06-26T18:27:51;101194.34;;;22.51;52.79
26775;BME280;14362;51.902;7.626;2023-06-26T18:31:53;101190.16;;;22.34;52.99
26775;BME280;14362;51.902;7.626;2023-06-26T18:35:54;101198.09;;;22.22;53.61
26775;BME280;14362;51.902;7.626;2023-06-26T18:39:56;101203.66;;;22.08;54.84
26775;BME280;14362;51.902;7.626;2023-06-26T18:43:59;101194.28;;;22.04;55.67
26775;BME280;14362;51.902;7.626;2023-06-26T18:48:00;101202.13;;;21.81;56.42
26775;BME280;14362;51.902;7.626;2023-06-26T18:52:05;101198.84;;;21.75;55.90
26775;BME280;14362;51.902;7.626;2023-06-26T18:56:07;101205.22;;;21.66;56.51
26775;BME280;14362;51.902;7.626;2023-06-26T19:00:11;101203.75;;;21.49;56.81
26775;BME280;14362;51.902;7.626;2023-06-26T19:04:13;101203.59;;;21.35;58.35
26775;BME280;14362;51.902;7.626;2023-06-26T19:08:15;101213.16;;;21.24;58.56
26775;BME280;14362;51.902;7.626;2023-06-26T19:12:16;101212.75;;;21.25;58.04
26775;BME280;14362;51.902;7.626;2023-06-26T19:16:20;101221.03;;;21.08;60.63
26775;BME280;14362;51.902;7.626;2023-06-26T19:20:21;101225.78;;;21.00;60.71
26775;BME280;14362;51.902;7.626;2023-06-26T19:24:23;101223.69;;;20.97;65.39
26775;BME280;14362;51.902;7.626;2023-06-26T19:28:24;101225.88;;;20.81;62.54
26775;BME280;14362;51.902;7.626;2023-06-26T19:32:27;101220.09;;;20.78;64.03
26775;BME280;14362;51.902;7.626;2023-06-26T19:36:28;101227.84;;;20.55;63.82
26775;BME280;14362;51.902;7.626;2023-06-26T19:40:30;101233.44;;;20.52;65.85
26775;BME280;14362;51.902;7.626;2023-06-26T19:44:32;101238.16;;;20.44;68.90
26775;BME280;14362;51.902;7.626;2023-06-26T19:48:35;101239.75;;;20.42;68.38
26775;BME280;14362;51.902;7.626;2023-06-26T19:52:37;101239.81;;;20.23;68.22
26775;BME280;14362;51.902;7.626;2023-06-26T19:56:39;101239.16;;;20.10;65.71
26775;BME280;14362;51.902;7.626;2023-06-26T20:00:40;101243.94;;;20.06;71.88
26775;BME280;14362;51.902;7.626;2023-06-26T20:04:43;101253.94;;;20.00;70.22
26775;BME280;14362;51.902;7.626;2023-06-26T20:08:44;101256.22;;;19.95;69.87
26775;BME280;14362;51.902;7.626;2023-06-26T20:12:46;101264.13;;;19.86;75.24
26775;BME280;14362;51.902;7.626;2023-06-26T20:16:47;101263.53;;;19.77;75.18
26775;BME280;14362;51.902;7.626;2023-06-26T20:20:50;101274.63;;;19.66;73.50
26775;BME280;14362;51.902;7.626;2023-06-26T20:24:51;101274.56;;;19.63;80.43
26775;BME280;14362;51.902;7.626;2023-06-26T20:28:53;101281.25;;;19.55;76.40
26775;BME280;14362;51.902;7.626;2023-06-26T20:32:54;101284.50;;;19.57;77.68
26775;BME280;14362;51.902;7.626;2023-06-26T20:36:57;101296.38;;;19.44;77.94
26775;BME280;14362;51.902;7.626;2023-06-26T20:40:59;101294.56;;;19.36;77.52
26775;BME280;14362;51.902;7.626;2023-06-26T20:45:01;101302.06;;;19.28;79.43
26775;BME280;14362;51.902;7.626;2023-06-26T20:49:04;101292.66;;;19.24;79.94
26775;BME280;14362;51.902;7.626;2023-06-26T20:53:07;101291.22;;;19.15;78.92
26775;BME280;14362;51.902;7.626;2023-06-26T20:57:09;101301.13;;;19.09;79.69
26775;BME280;14362;51.902;7.626;2023-06-26T21:01:10;101300.09;;;18.98;79.89